Time;durP1;ratioP1;P1;durP2;ratioP2;P2;SDS_P1;SDS_P2;PMS_P1;PMS_P2;Temp;Humidity;BMP_temperature;BMP_pressure;BME280_temperature;BME280_humidity;BME280_pressure;Samples;Min_cycle;Max_cycle;Signal;HPM_P1;HPM_P2
2023/01/22 00:01:32;;;;;;;20.80;11.63;;;-3.20;99.90;;;;;;5003152;28;20042;-80
2023/01/22 00:03:58;;;;;;;24.02;12.15;;;-3.20;99.90;;;;;;5026367;28;20484;-80
2023/01/22 00:06:24;;;;;;;19.45;11.73;;;-3.20;99.90;;;;;;5030600;28;20037;-80
2023/01/22 00:08:50;;;;;;;18.77;11.50;;;-3.20;99.90;;;;;;5021875;28;20041;-82
2023/01/22 00:11:17;;;;;;;19.80;11.45;;;-3.30;99.90;;;;;;5007123;28;20061;-80
2023/01/22 00:13:43;;;;;;;21.45;11.50;;;-3.30;99.90;;;;;;4991048;28;20042;-81
2023/01/22 00:16:12;;;;;;;18.13;11.13;;;-3.30;99.90;;;;;;5015946;28;20046;-80
2023/01/22 00:18:37;;;;;;;17.02;10.00;;;-3.40;99.90;;;;;;5021983;28;20052;-81
2023/01/22 00:21:03;;;;;;;18.05;10.40;;;-3.40;99.90;;;;;;5005579;28;20654;-80
2023/01/22 00:23:29;;;;;;;18.70;10.80;;;-3.30;99.90;;;;;;5013272;28;20044;-81
2023/01/22 00:26:14;;;;;;;18.35;10.32;;;-3.40;99.90;;;;;;5026666;28;20484;-80
2023/01/22 00:28:40;;;;;;;18.17;10.88;;;-3.40;99.90;;;;;;5013114;28;20060;-80
2023/01/22 00:31:07;;;;;;;17.58;10.68;;;-3.30;99.90;;;;;;5010228;28;20041;-80
2023/01/22 00:33:33;;;;;;;17.52;11.00;;;-3.30;99.90;;;;;;5021908;28;20087;-80
2023/01/22 00:36:07;;;;;;;19.75;10.45;;;-3.30;99.90;;;;;;5014525;28;20049;-81
2023/01/22 00:38:33;;;;;;;18.60;9.85;;;-3.30;99.90;;;;;;5006949;28;20491;-80
2023/01/22 00:41:04;;;;;;;19.30;11.20;;;-3.30;99.90;;;;;;5015162;28;20104;-81
2023/01/22 00:43:31;;;;;;;19.83;10.93;;;-3.30;99.90;;;;;;5012817;28;20487;-81
2023/01/22 00:45:56;;;;;;;17.45;10.25;;;-3.30;99.90;;;;;;5010308;28;20038;-81
2023/01/22 00:48:22;;;;;;;20.30;10.70;;;-3.30;99.90;;;;;;5037234;28;20029;-81
2023/01/22 00:50:48;;;;;;;18.35;11.23;;;-3.40;99.90;;;;;;5024564;28;20118;-80
2023/01/22 00:53:14;;;;;;;17.70;10.05;;;-3.40;99.90;;;;;;5000714;28;20091;-80
2023/01/22 00:55:40;;;;;;;17.38;10.00;;;-3.40;99.90;;;;;;5013474;28;20049;-80
2023/01/22 00:58:05;;;;;;;17.70;9.65;;;-3.40;99.90;;;;;;5019561;28;20159;-80
2023/01/22 01:00:31;;;;;;;18.35;10.18;;;-3.40;99.90;;;;;;5027854;28;20506;-80
2023/01/22 01:05:40;;;;;;;17.27;9.27;;;-3.50;99.90;;;;;;5016257;28;20506;-80
2023/01/22 01:08:06;;;;;;;17.58;9.73;;;-3.50;99.90;;;;;;5004217;28;20116;-80
2023/01/22 01:10:32;;;;;;;18.40;10.02;;;-3.50;99.90;;;;;;5011852;28;20130;-81
2023/01/22 01:12:57;;;;;;;19.13;9.73;;;-3.50;99.90;;;;;;5022556;28;20048;-81
2023/01/22 01:15:23;;;;;;;19.75;10.63;;;-3.40;99.90;;;;;;5017384;28;20044;-81
2023/01/22 01:17:49;;;;;;;20.88;9.98;;;-3.40;99.90;;;;;;5033151;28;20439;-80
2023/01/22 01:20:14;;;;;;;16.42;8.63;;;-3.40;99.90;;;;;;5000827;28;20164;-81
2023/01/22 01:22:40;;;;;;;26.55;10.52;;;-3.30;99.90;;;;;;5021874;28;20038;-81
2023/01/22 01:25:06;;;;;;;19.88;10.35;;;-3.20;99.90;;;;;;5017912;28;20029;-81
2023/01/22 01:27:32;;;;;;;22.20;10.82;;;-3.10;99.90;;;;;;5017776;28;20431;-81
2023/01/22 01:29:58;;;;;;;20.45;10.38;;;-3.00;99.90;;;;;;4996989;28;20037;-81
2023/01/22 01:32:24;;;;;;;21.48;9.45;;;-2.90;99.90;;;;;;4982163;28;20037;-81
2023/01/22 01:34:49;;;;;;;18.50;9.15;;;-3.00;99.90;;;;;;4998095;28;20045;-80
2023/01/22 01:37:16;;;;;;;15.93;8.52;;;-2.90;99.90;;;;;;4982196;28;20041;-81
2023/01/22 01:39:41;;;;;;;18.13;9.02;;;-3.00;99.90;;;;;;4999429;28;20484;-81
2023/01/22 01:42:08;;;;;;;13.18;8.88;;;-2.90;99.90;;;;;;5003969;28;20029;-81
2023/01/22 01:44:35;;;;;;;16.65;10.00;;;-2.90;99.90;;;;;;5037901;28;20048;-81
2023/01/22 01:47:07;;;;;;;21.30;11.13;;;-2.80;99.90;;;;;;5022248;28;20488;-81
2023/01/22 01:49:35;;;;;;;23.75;10.98;;;-2.70;99.90;;;;;;5003392;28;20546;-81
2023/01/22 01:52:09;;;;;;;22.95;11.27;;;-2.60;99.90;;;;;;5020553;28;20051;-81
2023/01/22 01:54:35;;;;;;;26.10;11.23;;;-2.40;99.90;;;;;;5018682;28;20120;-81
2023/01/22 01:57:07;;;;;;;24.58;11.02;;;-2.30;99.90;;;;;;5018497;28;20045;-81
2023/01/22 01:59:34;;;;;;;22.50;11.75;;;-2.20;99.90;;;;;;5006781;28;20045;-81
2023/01/22 02:02:02;;;;;;;24.98;10.63;;;-2.10;99.90;;;;;;5008896;28;20476;-81
2023/01/22 02:04:28;;;;;;;30.27;12.02;;;-2.10;99.90;;;;;;5002636;28;20091;-81
2023/01/22 02:06:54;;;;;;;27.08;12.10;;;-2.10;99.90;;;;;;5002575;28;20450;-81
2023/01/22 02:09:20;;;;;;;23.30;10.93;;;-2.00;99.90;;;;;;5018397;28;20033;-81
2023/01/22 02:11:46;;;;;;;27.08;13.00;;;-1.90;99.90;;;;;;5019982;28;20064;-81
2023/01/22 02:14:25;;;;;;;23.92;11.75;;;-1.80;99.90;;;;;;5002265;28;20040;-81
2023/01/22 02:17:06;;;;;;;29.13;11.90;;;-1.80;99.90;;;;;;5019576;28;20052;-81
2023/01/22 02:19:31;;;;;;;23.25;11.15;;;-1.80;99.90;;;;;;5002605;28;20053;-81
2023/01/22 02:21:57;;;;;;;23.40;11.65;;;-1.90;99.90;;;;;;5002870;28;20042;-81
2023/01/22 02:24:23;;;;;;;24.75;11.50;;;-1.90;99.90;;;;;;5004038;28;20037;-81
2023/01/22 02:26:48;;;;;;;25.83;11.63;;;-2.00;99.90;;;;;;5003526;28;20081;-81
2023/01/22 02:29:14;;;;;;;25.70;11.38;;;-2.00;99.90;;;;;;5036599;28;20047;-81
2023/01/22 02:31:40;;;;;;;30.00;12.00;;;-2.10;99.90;;;;;;5024159;28;20073;-81
2023/01/22 02:34:07;;;;;;;27.52;11.82;;;-2.10;99.90;;;;;;5004203;28;20064;-81
2023/01/22 02:36:35;;;;;;;24.27;10.15;;;-2.10;99.90;;;;;;5003978;28;20068;-81
2023/01/22 02:39:01;;;;;;;22.85;10.02;;;-2.20;99.90;;;;;;5002765;28;20610;-81
2023/01/22 02:41:27;;;;;;;25.15;11.85;;;-2.20;99.90;;;;;;5011761;28;20041;-81
2023/01/22 02:43:53;;;;;;;21.25;11.10;;;-2.20;99.90;;;;;;5018765;28;21569;-81
2023/01/22 02:46:19;;;;;;;20.48;10.60;;;-2.20;99.90;;;;;;5003831;28;20036;-81
2023/01/22 02:48:44;;;;;;;26.48;10.90;;;-2.20;99.90;;;;;;5029648;28;20041;-81
2023/01/22 02:51:10;;;;;;;24.85;12.35;;;-2.10;99.90;;;;;;5016032;28;20083;-81
2023/01/22 02:53:36;;;;;;;25.20;10.82;;;-2.00;99.90;;;;;;5015522;28;20048;-81
2023/01/22 02:56:09;;;;;;;30.02;12.25;;;-1.90;99.90;;;;;;5022122;28;20041;-81
2023/01/22 02:58:36;;;;;;;30.25;12.30;;;-1.80;99.90;;;;;;5036090;28;20037;-81
2023/01/22 03:01:19;;;;;;;23.13;11.43;;;-1.70;99.90;;;;;;5008912;28;20373;-81
2023/01/22 03:03:57;;;;;;;26.25;12.45;;;-1.60;99.90;;;;;;5018358;28;20104;-81
2023/01/22 03:06:25;;;;;;;23.45;11.20;;;-1.60;99.90;;;;;;5003547;28;20034;-81
2023/01/22 03:08:57;;;;;;;40.60;27.20;;;-1.50;99.90;;;;;;5019491;28;20116;-81
2023/01/22 03:11:25;;;;;;;17.88;10.38;;;-1.40;99.90;;;;;;5019053;28;20056;-81
2023/01/22 03:22:07;;;;;;;25.85;10.82;;;-1.10;99.90;;;;;;5004071;28;20099;-81
2023/01/22 03:24:33;;;;;;;36.10;25.65;;;-1.10;99.90;;;;;;5004006;28;20038;-81
2023/01/22 03:26:59;;;;;;;25.50;11.43;;;-1.00;99.90;;;;;;5003489;28;20446;-81
2023/01/22 03:29:24;;;;;;;27.25;10.13;;;-1.00;99.90;;;;;;5019412;28;20037;-81
2023/01/22 03:31:50;;;;;;;33.20;23.48;;;-1.00;99.90;;;;;;5023815;28;20108;-82
2023/01/22 03:34:19;;;;;;;31.40;23.73;;;-0.90;99.90;;;;;;5020784;28;20037;-81
2023/01/22 03:36:45;;;;;;;22.08;10.18;;;-0.80;99.90;;;;;;5036563;28;20045;-82
2023/01/22 03:39:11;;;;;;;30.20;22.13;;;-0.80;99.90;;;;;;5017057;28;20069;-82
2023/01/22 03:41:38;;;;;;;21.13;10.85;;;-0.70;99.90;;;;;;5003710;28;20033;-82
2023/01/22 03:44:04;;;;;;;29.42;22.27;;;-0.70;99.90;;;;;;5004258;28;20128;-81
2023/01/22 03:46:30;;;;;;;20.02;10.23;;;-0.60;99.90;;;;;;5003399;28;20033;-81
2023/01/22 03:48:56;;;;;;;17.98;8.77;;;-0.50;99.90;;;;;;5003961;28;20041;-81
2023/01/22 03:51:22;;;;;;;18.38;9.43;;;-0.50;99.90;;;;;;5018819;28;20037;-82
2023/01/22 03:53:48;;;;;;;19.40;9.57;;;-0.40;99.90;;;;;;5005830;28;20403;-81
2023/01/22 03:56:19;;;;;;;25.42;18.98;;;-0.30;99.90;;;;;;5021496;28;20068;-82
2023/01/22 03:58:45;;;;;;;22.92;16.85;;;-0.20;99.90;;;;;;5012109;28;20483;-82
2023/01/22 04:01:14;;;;;;;12.77;6.70;;;-0.20;99.90;;;;;;5010349;28;20036;-82
2023/01/22 04:03:40;;;;;;;19.70;16.80;;;-0.10;99.90;;;;;;5041697;28;20037;-82
2023/01/22 04:06:07;;;;;;;19.15;15.30;;;0.00;99.90;;;;;;5031741;28;20053;-82
2023/01/22 04:08:34;;;;;;;7.32;4.22;;;0.00;99.90;;;;;;4994749;28;20116;-82
2023/01/22 04:11:00;;;;;;;18.17;15.43;;;0.00;99.90;;;;;;5020529;28;20704;-82
2023/01/22 04:13:28;;;;;;;19.30;15.45;;;0.10;99.90;;;;;;5026295;28;20037;-82
2023/01/22 04:15:54;;;;;;;18.08;14.55;;;0.10;99.90;;;;;;5018862;28;20393;-82
2023/01/22 04:18:20;;;;;;;18.45;15.65;;;0.10;99.90;;;;;;5031701;28;20045;-82
2023/01/22 04:20:48;;;;;;;17.15;15.07;;;0.10;99.90;;;;;;5012355;28;20124;-82
2023/01/22 04:23:14;;;;;;;17.02;14.85;;;0.10;99.90;;;;;;5030710;28;20057;-82
2023/01/22 04:25:39;;;;;;;16.33;14.55;;;0.10;99.90;;;;;;5037855;28;20155;-81
2023/01/22 04:28:06;;;;;;;15.13;13.52;;;0.10;99.90;;;;;;5026661;28;20403;-82
2023/01/22 04:30:31;;;;;;;12.18;7.57;;;0.10;99.90;;;;;;5019091;28;20048;-82
2023/01/22 04:32:57;;;;;;;18.08;13.95;;;0.10;99.90;;;;;;5007611;28;20464;-82
2023/01/22 04:35:23;;;;;;;15.95;13.45;;;0.10;99.90;;;;;;5001954;28;20048;-82
2023/01/22 04:37:49;;;;;;;15.23;12.90;;;0.10;99.90;;;;;;5032169;28;20041;-83
2023/01/22 04:40:15;;;;;;;15.38;13.40;;;0.10;99.90;;;;;;5014354;28;20045;-82
2023/01/22 04:42:40;;;;;;;14.35;12.80;;;0.20;99.90;;;;;;5014655;28;20132;-82
2023/01/22 04:45:07;;;;;;;14.05;12.50;;;0.20;99.90;;;;;;5026504;28;20033;-82
2023/01/22 04:47:33;;;;;;;16.60;12.77;;;0.30;99.90;;;;;;5026639;28;20040;-83
2023/01/22 04:49:59;;;;;;;7.82;4.85;;;0.30;99.90;;;;;;5011999;28;20033;-82
2023/01/22 04:52:25;;;;;;;11.27;5.57;;;0.30;99.90;;;;;;5021114;28;20049;-83
2023/01/22 04:54:52;;;;;;;13.85;12.45;;;0.20;99.90;;;;;;5028292;28;20045;-83
2023/01/22 04:57:18;;;;;;;13.18;11.55;;;0.30;99.90;;;;;;5032779;28;20048;-83
2023/01/22 04:59:44;;;;;;;13.90;11.60;;;0.40;99.90;;;;;;5008264;28;20041;-82
2023/01/22 05:02:09;;;;;;;10.10;5.28;;;0.30;99.90;;;;;;5015600;28;20040;-82
2023/01/22 05:04:35;;;;;;;13.15;11.73;;;0.40;99.90;;;;;;5008594;28;20033;-83
2023/01/22 05:07:00;;;;;;;9.73;4.88;;;0.40;99.90;;;;;;5023526;28;20473;-82
2023/01/22 05:09:26;;;;;;;12.43;11.13;;;0.40;99.90;;;;;;5019415;28;20083;-83
2023/01/22 05:11:52;;;;;;;14.63;11.27;;;0.40;99.90;;;;;;5014461;28;20403;-82
2023/01/22 05:14:17;;;;;;;12.00;10.70;;;0.40;99.90;;;;;;5000320;28;20168;-82
2023/01/22 05:16:43;;;;;;;7.93;5.53;;;0.40;99.90;;;;;;5017736;28;20045;-82
2023/01/22 05:19:08;;;;;;;9.70;4.82;;;0.40;99.90;;;;;;5017821;28;20041;-82
2023/01/22 05:21:34;;;;;;;12.45;11.15;;;0.40;99.90;;;;;;5004449;28;20064;-82
2023/01/22 05:24:00;;;;;;;12.13;10.63;;;0.40;99.90;;;;;;5018068;28;20063;-82
2023/01/22 05:26:25;;;;;;;11.98;10.70;;;0.40;99.90;;;;;;5018201;28;20037;-82
2023/01/22 05:28:51;;;;;;;13.25;5.50;;;0.40;99.90;;;;;;5001143;28;20096;-82
2023/01/22 05:31:16;;;;;;;12.52;9.82;;;0.40;99.90;;;;;;5031711;28;20049;-83
2023/01/22 05:33:43;;;;;;;6.38;4.28;;;0.40;99.90;;;;;;5005180;28;20044;-82
2023/01/22 05:36:11;;;;;;;11.45;9.82;;;0.40;99.90;;;;;;5000856;28;20041;-82
2023/01/22 05:38:37;;;;;;;10.73;3.92;;;0.50;99.90;;;;;;5018413;28;20474;-83
2023/01/22 05:41:03;;;;;;;12.52;9.35;;;0.50;99.90;;;;;;5016739;28;20042;-82
2023/01/22 05:43:28;;;;;;;11.20;9.68;;;0.50;99.90;;;;;;5005765;28;20555;-83
2023/01/22 05:45:59;;;;;;;11.98;10.45;;;0.50;99.90;;;;;;5010260;28;20091;-83
2023/01/22 05:48:25;;;;;;;7.60;5.03;;;0.50;99.90;;;;;;5018829;28;20133;-82
2023/01/22 05:50:50;;;;;;;11.70;9.68;;;0.50;99.90;;;;;;5002046;28;20057;-82
2023/01/22 05:53:16;;;;;;;9.75;5.25;;;0.50;99.90;;;;;;5019933;28;20549;-83
2023/01/22 05:55:42;;;;;;;10.20;6.20;;;0.50;99.90;;;;;;5004866;28;20037;-82
2023/01/22 05:58:07;;;;;;;13.13;10.70;;;0.50;99.90;;;;;;5018018;28;20502;-83
2023/01/22 06:00:33;;;;;;;12.63;9.60;;;0.50;99.90;;;;;;5014294;28;20045;-83
2023/01/22 06:03:00;;;;;;;14.98;10.38;;;0.50;99.90;;;;;;5019283;28;20034;-82
2023/01/22 06:05:26;;;;;;;11.60;9.75;;;0.50;99.90;;;;;;5002923;28;20038;-83
2023/01/22 06:07:52;;;;;;;6.05;3.50;;;0.40;99.90;;;;;;5019125;28;20065;-82
2023/01/22 06:10:18;;;;;;;11.00;9.20;;;0.50;99.90;;;;;;5019703;28;20049;-82
2023/01/22 06:12:44;;;;;;;10.60;9.50;;;0.50;99.90;;;;;;5020003;28;20038;-82
2023/01/22 06:15:10;;;;;;;10.55;9.52;;;0.50;99.90;;;;;;5030574;28;20496;-82
2023/01/22 06:17:36;;;;;;;10.68;9.57;;;0.50;99.90;;;;;;5020395;28;20495;-83
2023/01/22 06:20:03;;;;;;;12.85;9.52;;;0.50;99.90;;;;;;5020629;28;20037;-83
2023/01/22 06:22:29;;;;;;;10.25;9.15;;;0.50;99.90;;;;;;5004385;28;20065;-83
2023/01/22 06:24:55;;;;;;;11.73;9.68;;;0.50;99.90;;;;;;5003930;28;20152;-83
2023/01/22 06:27:20;;;;;;;11.75;9.13;;;0.40;99.90;;;;;;4992983;28;20032;-83
2023/01/22 06:29:46;;;;;;;11.63;9.60;;;0.40;99.90;;;;;;5014779;28;20104;-83
2023/01/22 06:32:11;;;;;;;10.90;9.77;;;0.40;99.90;;;;;;5006129;28;20511;-83
2023/01/22 06:34:37;;;;;;;10.95;9.77;;;0.40;99.90;;;;;;5038651;28;20046;-83
2023/01/22 06:37:03;;;;;;;8.15;5.30;;;0.40;99.90;;;;;;5015029;28;20044;-82
2023/01/22 06:39:29;;;;;;;12.25;10.05;;;0.40;99.90;;;;;;5041650;28;20040;-83
2023/01/22 06:41:55;;;;;;;11.25;10.05;;;0.40;99.90;;;;;;5024852;28;20040;-83
2023/01/22 06:44:20;;;;;;;11.40;10.30;;;0.40;99.90;;;;;;5036045;28;20043;-83
2023/01/22 06:46:46;;;;;;;12.52;9.77;;;0.30;99.90;;;;;;5024661;28;20038;-83
2023/01/22 06:49:12;;;;;;;11.23;10.10;;;0.30;99.90;;;;;;5012271;28;20040;-83
2023/01/22 06:51:38;;;;;;;7.10;4.57;;;0.30;99.90;;;;;;5024724;28;20451;-83
2023/01/22 06:54:04;;;;;;;9.52;4.78;;;0.30;99.90;;;;;;5005345;28;20030;-83
2023/01/22 06:56:30;;;;;;;11.40;10.30;;;0.30;99.90;;;;;;5005552;28;20561;-83
2023/01/22 06:58:55;;;;;;;10.88;9.77;;;0.30;99.90;;;;;;5005052;28;20118;-82
2023/01/22 07:01:21;;;;;;;11.35;9.85;;;0.30;99.90;;;;;;5007696;28;20037;-83
2023/01/22 07:03:47;;;;;;;10.65;9.55;;;0.30;99.90;;;;;;5011467;28;20044;-83
2023/01/22 07:06:13;;;;;;;10.52;9.27;;;0.30;99.90;;;;;;5021897;28;20041;-82
2023/01/22 07:08:40;;;;;;;10.18;9.05;;;0.30;99.90;;;;;;5008650;28;20037;-82
2023/01/22 07:11:05;;;;;;;11.85;9.88;;;0.30;99.90;;;;;;5006308;28;20041;-83
2023/01/22 07:13:31;;;;;;;13.73;9.60;;;0.30;99.90;;;;;;5007028;28;20057;-82
2023/01/22 07:16:00;;;;;;;11.60;10.40;;;0.30;99.90;;;;;;5023296;28;20049;-83
2023/01/22 07:18:26;;;;;;;8.85;4.10;;;0.30;99.90;;;;;;5024144;28;20121;-83
2023/01/22 07:20:51;;;;;;;11.48;10.23;;;0.30;99.90;;;;;;5020299;28;20096;-84
2023/01/22 07:23:17;;;;;;;10.75;9.65;;;0.30;99.90;;;;;;5033359;28;20518;-83
2023/01/22 07:25:43;;;;;;;11.70;10.25;;;0.30;99.90;;;;;;5021285;28;20519;-83
2023/01/22 07:28:13;;;;;;;13.60;10.38;;;0.30;99.90;;;;;;4998477;28;20492;-83
2023/01/22 07:30:41;;;;;;;12.20;9.82;;;0.20;99.90;;;;;;4999288;28;20038;-79
2023/01/22 07:33:09;;;;;;;12.07;10.00;;;0.20;99.90;;;;;;5002048;28;20381;-81
2023/01/22 07:35:34;;;;;;;8.55;5.22;;;0.20;99.90;;;;;;5006192;28;20067;-80
2023/01/22 07:38:00;;;;;;;11.50;10.40;;;0.20;99.90;;;;;;5027078;28;20546;-82
2023/01/22 07:40:27;;;;;;;11.90;10.65;;;0.20;99.90;;;;;;5002675;28;20124;-80
2023/01/22 07:42:53;;;;;;;12.60;11.18;;;0.20;99.90;;;;;;5002286;28;20037;-77
2023/01/22 07:45:20;;;;;;;12.05;10.32;;;0.10;99.90;;;;;;5019390;28;20435;-81
2023/01/22 07:47:55;;;;;;;12.30;11.00;;;0.10;99.90;;;;;;5004869;28;20037;-81
2023/01/22 07:50:21;;;;;;;15.32;13.23;;;0.10;99.90;;;;;;5005898;28;20053;-81
2023/01/22 07:52:47;;;;;;;32.53;20.38;;;0.10;99.90;;;;;;5026802;28;20095;-80
2023/01/22 07:55:12;;;;;;;37.25;22.65;;;0.10;99.90;;;;;;5004971;28;20495;-80
2023/01/22 07:57:38;;;;;;;18.38;14.70;;;0.10;99.90;;;;;;5021785;28;20052;-80
2023/01/22 08:00:04;;;;;;;15.30;13.05;;;0.10;99.90;;;;;;5026548;28;20237;-81
2023/01/22 08:02:30;;;;;;;15.02;12.52;;;0.10;99.90;;;;;;5012112;28;20503;-80
2023/01/22 08:04:55;;;;;;;9.63;6.65;;;0.10;99.90;;;;;;5022659;28;20048;-82
2023/01/22 08:07:22;;;;;;;12.40;6.35;;;0.10;99.90;;;;;;5023087;28;20057;-83
2023/01/22 08:09:48;;;;;;;13.85;12.48;;;0.10;99.90;;;;;;5005356;28;20364;-82
2023/01/22 08:12:14;;;;;;;14.88;13.32;;;0.10;99.90;;;;;;5003965;28;20041;-82
2023/01/22 08:14:39;;;;;;;14.95;13.50;;;0.10;99.90;;;;;;5027928;28;20040;-82
2023/01/22 08:17:05;;;;;;;8.40;6.18;;;0.10;99.90;;;;;;5034071;28;20041;-78
2023/01/22 08:19:31;;;;;;;9.45;6.57;;;0.20;99.90;;;;;;5000117;28;20060;-78
2023/01/22 08:21:56;;;;;;;11.52;6.53;;;0.20;99.90;;;;;;5003374;28;20404;-79
2023/01/22 08:24:22;;;;;;;13.90;11.80;;;0.20;99.90;;;;;;5018492;28;20400;-79
2023/01/22 08:26:47;;;;;;;13.20;11.75;;;0.20;99.90;;;;;;4998507;28;20563;-78
2023/01/22 08:29:13;;;;;;;13.27;11.98;;;0.30;99.90;;;;;;5005585;28;20072;-79
2023/01/22 08:31:39;;;;;;;14.05;12.65;;;0.20;99.90;;;;;;5020424;28;20121;-79
2023/01/22 08:34:04;;;;;;;13.38;12.07;;;0.30;99.90;;;;;;5003216;28;20064;-79
2023/01/22 08:36:30;;;;;;;6.55;4.55;;;0.30;99.90;;;;;;5021780;28;20041;-80
2023/01/22 08:38:56;;;;;;;15.88;14.18;;;0.30;99.90;;;;;;5021402;28;20374;-79
2023/01/22 08:41:22;;;;;;;13.93;12.15;;;0.30;99.90;;;;;;5017423;28;20040;-80
2023/01/22 08:43:47;;;;;;;15.18;13.57;;;0.30;99.90;;;;;;5007564;28;20036;-80
2023/01/22 08:46:13;;;;;;;12.95;11.63;;;0.40;99.90;;;;;;5027808;28;20038;-79
2023/01/22 08:48:41;;;;;;;16.02;13.18;;;0.40;99.90;;;;;;5036295;28;20488;-79
2023/01/22 08:51:06;;;;;;;13.60;12.25;;;0.40;99.90;;;;;;5036012;28;20055;-80
2023/01/22 08:53:32;;;;;;;13.65;12.32;;;0.40;99.90;;;;;;5031598;28;20124;-81
2023/01/22 08:55:58;;;;;;;13.82;12.02;;;0.40;99.90;;;;;;5006541;28;20510;-81
2023/01/22 08:58:26;;;;;;;12.65;11.38;;;0.40;99.90;;;;;;5004564;28;20044;-83
2023/01/22 09:00:53;;;;;;;9.40;6.47;;;0.40;99.90;;;;;;5007559;28;20044;-82
2023/01/22 09:03:20;;;;;;;9.13;6.47;;;0.40;99.90;;;;;;5039675;28;20096;-82
2023/01/22 09:05:45;;;;;;;14.75;11.95;;;0.40;99.90;;;;;;5014415;28;20101;-84
2023/01/22 09:08:11;;;;;;;13.50;12.10;;;0.50;99.90;;;;;;5010605;28;20450;-82
2023/01/22 09:10:37;;;;;;;14.90;12.27;;;0.50;99.90;;;;;;5020342;28;20049;-82
2023/01/22 09:13:02;;;;;;;13.57;12.02;;;0.50;99.90;;;;;;5029166;28;20111;-82
2023/01/22 09:15:28;;;;;;;12.85;11.43;;;0.50;99.90;;;;;;5013983;28;20268;-82
2023/01/22 09:17:54;;;;;;;12.50;11.27;;;0.50;99.90;;;;;;5032300;28;20570;-83
2023/01/22 09:20:20;;;;;;;13.50;12.07;;;0.50;99.90;;;;;;5043289;28;20037;-82
2023/01/22 09:22:46;;;;;;;10.05;6.60;;;0.50;99.90;;;;;;5035655;28;20063;-82
2023/01/22 09:25:13;;;;;;;13.23;11.80;;;0.50;99.90;;;;;;5024497;28;20073;-80
2023/01/22 09:27:38;;;;;;;15.13;13.63;;;0.50;99.90;;;;;;5024696;28;20040;-82
2023/01/22 09:30:04;;;;;;;14.18;11.85;;;0.60;99.90;;;;;;5022156;28;20045;-81
2023/01/22 09:32:30;;;;;;;13.43;6.80;;;0.50;99.90;;;;;;5024256;28;20436;-82
2023/01/22 09:34:56;;;;;;;14.27;12.88;;;0.60;99.90;;;;;;5010651;28;20048;-82
2023/01/22 09:37:22;;;;;;;15.10;13.57;;;0.60;99.90;;;;;;5018086;28;20055;-81
2023/01/22 09:39:51;;;;;;;10.05;5.75;;;0.60;99.90;;;;;;5015968;28;20045;-81
2023/01/22 09:42:21;;;;;;;12.95;11.55;;;0.60;99.90;;;;;;5012608;28;20071;-82
2023/01/22 09:44:51;;;;;;;13.57;12.18;;;0.70;99.90;;;;;;5021548;28;20515;-82
2023/01/22 09:47:40;;;;;;;14.82;13.13;;;0.70;99.90;;;;;;5008807;28;20029;-82
2023/01/22 09:50:18;;;;;;;14.07;12.68;;;0.70;99.90;;;;;;4987973;28;20092;-82
2023/01/22 09:52:45;;;;;;;14.85;13.32;;;0.80;99.90;;;;;;4993776;28;20061;-81
2023/01/22 09:55:14;;;;;;;14.02;12.45;;;0.80;99.90;;;;;;4995038;28;20044;-79
2023/01/22 09:57:44;;;;;;;13.82;12.52;;;0.80;99.90;;;;;;5026742;28;20095;-79
2023/01/22 10:00:28;;;;;;;14.57;13.18;;;0.80;99.90;;;;;;5022254;28;20500;-79
2023/01/22 10:02:59;;;;;;;13.57;12.18;;;0.90;99.90;;;;;;5026575;28;20076;-79
2023/01/22 10:05:38;;;;;;;13.77;12.38;;;0.90;99.90;;;;;;5017574;28;20057;-79
2023/01/22 10:08:22;;;;;;;12.48;11.18;;;0.90;99.90;;;;;;5023128;28;20080;-79
2023/01/22 10:10:50;;;;;;;13.50;12.20;;;0.90;99.90;;;;;;5001889;28;20037;-79
2023/01/22 10:13:26;;;;;;;13.32;11.43;;;0.90;99.90;;;;;;5000791;28;20056;-80
2023/01/22 10:15:53;;;;;;;13.35;11.90;;;0.90;99.90;;;;;;4997919;28;20045;-79
2023/01/22 10:18:30;;;;;;;13.10;11.80;;;0.90;99.90;;;;;;4994441;28;20037;-79
2023/01/22 10:20:59;;;;;;;14.32;12.85;;;0.90;99.90;;;;;;4994489;28;20042;-79
2023/01/22 10:23:25;;;;;;;14.55;13.10;;;1.00;99.90;;;;;;5011421;28;20064;-79
2023/01/22 10:26:06;;;;;;;14.90;13.48;;;1.00;99.90;;;;;;5016184;28;20484;-79
2023/01/22 10:28:31;;;;;;;15.07;12.40;;;1.10;99.90;;;;;;5008887;28;20069;-79
2023/01/22 10:30:57;;;;;;;12.90;11.68;;;1.10;99.90;;;;;;5033756;28;20037;-79
2023/01/22 10:33:25;;;;;;;13.15;11.93;;;1.10;99.90;;;;;;5001500;28;20587;-79
2023/01/22 10:35:55;;;;;;;13.82;12.45;;;1.10;99.90;;;;;;5033544;28;20466;-79
2023/01/22 10:38:29;;;;;;;13.80;12.48;;;1.20;99.90;;;;;;5033941;28;20048;-79
2023/01/22 10:41:00;;;;;;;13.45;12.05;;;1.30;99.90;;;;;;5023920;28;20467;-79
2023/01/22 10:43:32;;;;;;;13.60;12.20;;;1.30;99.90;;;;;;5026001;28;20049;-79
2023/01/22 10:46:19;;;;;;;13.70;12.27;;;1.40;99.90;;;;;;5031399;28;20045;-79
2023/01/22 10:48:56;;;;;;;14.32;12.10;;;1.40;99.90;;;;;;5017211;28;20276;-79
2023/01/22 10:51:31;;;;;;;15.43;12.57;;;1.40;99.90;;;;;;5005258;28;20036;-79
2023/01/22 10:53:58;;;;;;;14.93;12.18;;;1.40;99.90;;;;;;5021501;28;20040;-78
2023/01/22 10:56:31;;;;;;;13.15;11.73;;;1.40;99.90;;;;;;5017005;28;20044;-79
2023/01/22 10:58:57;;;;;;;;;;;1.50;99.90;;;;;;5033700;28;20049;-78
2023/01/22 11:01:44;;;;;;;14.23;12.23;;;1.40;99.90;;;;;;5033505;28;19921;-79
2023/01/22 11:04:12;;;;;;;12.55;11.25;;;1.50;99.90;;;;;;5019487;28;20984;-79
2023/01/22 11:06:46;;;;;;;12.70;11.40;;;1.50;99.90;;;;;;5021054;28;20045;-79
2023/01/22 11:09:21;;;;;;;12.60;11.30;;;1.50;99.90;;;;;;4996827;28;20172;-80
2023/01/22 11:12:02;;;;;;;12.38;11.07;;;1.50;99.90;;;;;;5021870;28;20029;-79
2023/01/22 11:14:36;;;;;;;12.30;11.02;;;1.50;99.90;;;;;;4997656;28;20103;-79
2023/01/22 11:17:23;;;;;;;13.55;12.15;;;1.40;99.90;;;;;;4988629;28;20060;-79
2023/01/22 11:20:02;;;;;;;14.02;12.57;;;1.50;99.90;;;;;;5028747;28;20110;-79
2023/01/22 11:22:39;;;;;;;13.73;12.13;;;1.50;99.90;;;;;;5037032;28;20064;-80
2023/01/22 11:25:09;;;;;;;13.95;12.30;;;1.50;99.90;;;;;;5017946;28;20037;-79
2023/01/22 11:28:01;;;;;;;16.88;13.02;;;1.50;99.90;;;;;;5021041;28;20504;-79
2023/01/22 11:30:58;;;;;;;13.45;12.02;;;1.50;99.90;;;;;;5033340;28;20037;-80
2023/01/22 11:33:51;;;;;;;14.00;12.57;;;1.50;99.90;;;;;;5018372;28;20037;-79
2023/01/22 11:36:52;;;;;;;13.40;11.63;;;1.50;99.90;;;;;;5017267;28;20041;-79
2023/01/22 11:39:38;;;;;;;12.82;11.50;;;1.50;99.90;;;;;;5020942;28;20052;-79
2023/01/22 11:42:21;;;;;;;12.38;11.15;;;1.50;99.90;;;;;;5014270;28;20054;-79
2023/01/22 11:45:17;;;;;;;13.75;11.57;;;1.60;99.90;;;;;;5023980;28;20041;-79
2023/01/22 11:48:09;;;;;;;14.23;12.50;;;1.60;99.90;;;;;;5017855;28;20450;-80
2023/01/22 11:51:03;;;;;;;15.38;13.77;;;1.70;99.90;;;;;;5041879;28;20080;-79
2023/01/22 11:53:47;;;;;;;;;;;1.80;99.90;;;;;;5020677;28;20131;-77
2023/01/22 11:56:43;;;;;;;14.18;12.63;;;1.90;99.90;;;;;;5010368;28;19986;-83
2023/01/22 11:59:23;;;;;;;13.20;11.65;;;2.00;99.90;;;;;;5007585;28;20045;-83
2023/01/22 12:02:07;;;;;;;13.85;11.45;;;2.00;99.90;;;;;;5010032;28;20103;-80
2023/01/22 12:04:42;;;;;;;14.35;11.70;;;2.10;99.90;;;;;;5023185;28;20041;-81
2023/01/22 12:07:30;;;;;;;12.48;11.25;;;2.00;99.90;;;;;;5033795;28;20041;-82
2023/01/22 12:10:29;;;;;;;13.82;12.52;;;2.00;99.90;;;;;;5029655;28;20051;-82
2023/01/22 12:13:25;;;;;;;14.50;11.40;;;2.00;99.90;;;;;;5034503;28;20133;-80
2023/01/22 12:16:19;;;;;;;13.02;11.65;;;2.00;99.90;;;;;;4975629;28;20084;-81
2023/01/22 12:19:03;;;;;;;12.70;11.27;;;2.00;99.90;;;;;;5012058;28;20120;-80
2023/01/22 12:21:34;;;;;;;14.10;12.45;;;2.00;99.90;;;;;;5003122;28;20068;-81
2023/01/22 12:24:23;;;;;;;14.18;12.68;;;2.00;99.90;;;;;;5017135;28;20048;-81
2023/01/22 12:27:15;;;;;;;15.52;13.93;;;2.10;99.90;;;;;;5012753;28;20045;-82
2023/01/22 12:29:53;;;;;;;15.80;13.32;;;2.10;99.90;;;;;;4998662;28;20104;-79
2023/01/22 12:32:21;;;;;;;15.73;13.50;;;2.00;99.90;;;;;;5023305;28;20045;-80
2023/01/22 12:34:54;;;;;;;14.38;12.65;;;2.00;99.90;;;;;;5018031;28;20437;-80
2023/01/22 12:37:22;;;;;;;;;;;2.00;99.90;;;;;;5038511;28;20403;-80
2023/01/22 12:40:09;;;;;;;15.45;13.85;;;2.00;99.90;;;;;;5018947;28;19929;-79
2023/01/22 12:42:50;;;;;;;15.38;13.77;;;1.90;99.90;;;;;;5021828;28;20052;-79
2023/01/22 12:45:25;;;;;;;13.40;12.10;;;1.90;99.90;;;;;;5008734;28;20071;-80
2023/01/22 12:48:03;;;;;;;14.10;12.80;;;2.00;99.90;;;;;;5017659;28;20041;-80
2023/01/22 12:50:28;;;;;;;13.02;11.52;;;2.00;99.90;;;;;;5013261;28;20328;-80
2023/01/22 12:53:19;;;;;;;14.27;11.93;;;2.10;99.90;;;;;;5024384;28;20043;-80
2023/01/22 12:55:55;;;;;;;14.75;13.02;;;2.10;99.90;;;;;;5016644;28;20428;-78
2023/01/22 12:58:23;;;;;;;13.60;12.10;;;2.10;99.90;;;;;;5015195;28;20041;-78
2023/01/22 13:01:03;;;;;;;13.20;11.90;;;2.10;99.90;;;;;;5023519;28;20077;-81